This is the latest recevied weather packets stored in our database for station/object SR2GKG-13. If no packets are shown the sender has not sent any weather packets the latest 10 day(s).
| Time | Temp. | Humidity | Pressure | Rain* | Wind** | Luminosity | Snow |
|---|---|---|---|---|---|---|---|
| 1788195777 | 20.56° C | 74% | 1000.4 hPa | - | - | - | - |
| 1788193976 | 21.67° C | 67% | 1000.2 hPa | - | - | - | - |
| 1788193076 | 21.67° C | 68% | 1000.4 hPa | - | - | - | - |
| 1788191276 | 22.22° C | 69% | 1000.6 hPa | - | - | - | - |
| 1788189475 | 22.78° C | 69% | 1000.6 hPa | - | - | - | - |
| 1788188575 | 22.78° C | 68% | 1000.4 hPa | - | - | - | - |
| 1788187675 | 23.33° C | 66% | 1000.3 hPa | - | - | - | - |
| 1788186775 | 24.44° C | 67% | 1000.2 hPa | - | - | - | - |
| 1788185875 | 23.89° C | 71% | 1000.2 hPa | - | - | - | - |
| 1788184974 | 24.44° C | 68% | 1000.2 hPa | - | - | - | - |
| 1788184074 | 25° C | 63% | 1000.2 hPa | - | - | - | - |
| 1788182274 | 24.44° C | 69% | 1000.6 hPa | - | - | - | - |
| 1788181374 | 23.89° C | 76% | 1000.7 hPa | - | - | - | - |
| 1788180474 | 23.33° C | 78% | 1000.7 hPa | - | - | - | - |
| 1788179574 | 23.33° C | 79% | 1000.8 hPa | - | - | - | - |
| 1788178674 | 22.78° C | 80% | 1000.9 hPa | - | - | - | - |
| 1788177774 | 22.78° C | 80% | 1000.9 hPa | - | - | - | - |
| 1788175973 | 22.78° C | 75% | 1001 hPa | - | - | - | - |
| 1788175073 | 23.89° C | 71% | 1000.9 hPa | - | - | - | - |
| 1788174173 | 23.89° C | 70% | 1001 hPa | - | - | - | - |
| 1788173273 | 23.89° C | 70% | 1001.1 hPa | - | - | - | - |
| 1788172373 | 24.44° C | 66% | 1001.1 hPa | - | - | - | - |
| 1788171473 | 24.44° C | 66% | 1001.2 hPa | - | - | - | - |
| 1788170573 | 24.44° C | 66% | 1001.2 hPa | - | - | - | - |
| 1788169673 | 25° C | 60% | 1001.2 hPa | - | - | - | - |
* Rain since midnight (hover to see other rain measurements)
** Current wind speed in m/s (hover to see current wind gust speed)